sensor_id;sensor_type;location;lat;lon;timestamp;temperature;humidity
6118;DHT22;3089;48.202;11.510;2022-10-16T00:01:29;13.70;99.90
6118;DHT22;3089;48.202;11.510;2022-10-16T00:03:59;13.70;99.90
6118;DHT22;3089;48.202;11.510;2022-10-16T00:06:29;13.80;99.90
6118;DHT22;3089;48.202;11.510;2022-10-16T00:08:57;13.80;99.90
6118;DHT22;3089;48.202;11.510;2022-10-16T00:11:27;13.90;99.90
6118;DHT22;3089;48.202;11.510;2022-10-16T00:13:56;13.80;99.90
6118;DHT22;3089;48.202;11.510;2022-10-16T00:16:25;13.70;99.90
6118;DHT22;3089;48.202;11.510;2022-10-16T00:18:53;13.70;99.90
6118;DHT22;3089;48.202;11.510;2022-10-16T00:21:23;13.70;99.90
6118;DHT22;3089;48.202;11.510;2022-10-16T00:23:53;13.60;99.90
6118;DHT22;3089;48.202;11.510;2022-10-16T00:26:21;13.60;99.90
6118;DHT22;3089;48.202;11.510;2022-10-16T00:28:50;13.50;99.90
6118;DHT22;3089;48.202;11.510;2022-10-16T00:31:20;13.60;99.90
6118;DHT22;3089;48.202;11.510;2022-10-16T00:33:48;13.50;99.90
6118;DHT22;3089;48.202;11.510;2022-10-16T00:36:19;13.40;99.90
6118;DHT22;3089;48.202;11.510;2022-10-16T00:38:49;13.40;99.90
6118;DHT22;3089;48.202;11.510;2022-10-16T00:41:22;13.50;99.90
6118;DHT22;3089;48.202;11.510;2022-10-16T00:43:51;13.60;99.90
6118;DHT22;3089;48.202;11.510;2022-10-16T00:46:21;13.50;99.90
6118;DHT22;3089;48.202;11.510;2022-10-16T00:48:52;13.40;99.90
6118;DHT22;3089;48.202;11.510;2022-10-16T00:51:25;13.60;99.90
6118;DHT22;3089;48.202;11.510;2022-10-16T00:53:55;13.60;99.90
6118;DHT22;3089;48.202;11.510;2022-10-16T00:56:25;13.60;99.90
6118;DHT22;3089;48.202;11.510;2022-10-16T00:58:53;13.60;99.90
6118;DHT22;3089;48.202;11.510;2022-10-16T01:01:21;13.60;99.90
6118;DHT22;3089;48.202;11.510;2022-10-16T01:03:49;13.60;99.90
6118;DHT22;3089;48.202;11.510;2022-10-16T01:06:23;13.50;99.90
6118;DHT22;3089;48.202;11.510;2022-10-16T01:09:06;13.40;99.90
6118;DHT22;3089;48.202;11.510;2022-10-16T01:11:44;13.40;99.90
6118;DHT22;3089;48.202;11.510;2022-10-16T01:14:19;13.40;99.90
6118;DHT22;3089;48.202;11.510;2022-10-16T01:16:53;13.40;99.90
6118;DHT22;3089;48.202;11.510;2022-10-16T01:19:39;13.40;99.90
6118;DHT22;3089;48.202;11.510;2022-10-16T01:22:12;13.30;99.90
6118;DHT22;3089;48.202;11.510;2022-10-16T01:24:45;13.30;99.90
6118;DHT22;3089;48.202;11.510;2022-10-16T01:27:21;13.30;99.90
6118;DHT22;3089;48.202;11.510;2022-10-16T01:29:53;13.30;99.90
6118;DHT22;3089;48.202;11.510;2022-10-16T01:32:28;13.30;99.90
6118;DHT22;3089;48.202;11.510;2022-10-16T01:35:02;13.30;99.90
6118;DHT22;3089;48.202;11.510;2022-10-16T01:37:35;13.30;99.90
6118;DHT22;3089;48.202;11.510;2022-10-16T01:40:07;13.20;99.90
6118;DHT22;3089;48.202;11.510;2022-10-16T01:42:41;13.20;99.90
6118;DHT22;3089;48.202;11.510;2022-10-16T01:45:11;13.30;99.90
6118;DHT22;3089;48.202;11.510;2022-10-16T01:47:41;13.40;99.90
6118;DHT22;3089;48.202;11.510;2022-10-16T01:50:10;13.30;99.90
6118;DHT22;3089;48.202;11.510;2022-10-16T01:52:41;13.30;99.90
6118;DHT22;3089;48.202;11.510;2022-10-16T01:55:14;13.20;99.90
6118;DHT22;3089;48.202;11.510;2022-10-16T01:57:47;13.20;99.90
6118;DHT22;3089;48.202;11.510;2022-10-16T02:00:18;13.20;99.90
6118;DHT22;3089;48.202;11.510;2022-10-16T02:02:48;13.20;99.90
6118;DHT22;3089;48.202;11.510;2022-10-16T02:05:21;13.10;99.90
6118;DHT22;3089;48.202;11.510;2022-10-16T02:07:51;13.10;99.90
6118;DHT22;3089;48.202;11.510;2022-10-16T02:10:19;13.10;99.90
6118;DHT22;3089;48.202;11.510;2022-10-16T02:12:53;13.10;99.90
6118;DHT22;3089;48.202;11.510;2022-10-16T02:15:22;13.00;99.90
6118;DHT22;3089;48.202;11.510;2022-10-16T02:17:50;13.10;99.90
6118;DHT22;3089;48.202;11.510;2022-10-16T02:20:20;13.10;99.90
6118;DHT22;3089;48.202;11.510;2022-10-16T02:22:50;13.10;99.90
6118;DHT22;3089;48.202;11.510;2022-10-16T02:25:23;13.00;99.90
6118;DHT22;3089;48.202;11.510;2022-10-16T02:27:55;13.00;99.90
6118;DHT22;3089;48.202;11.510;2022-10-16T02:30:27;13.00;99.90
6118;DHT22;3089;48.202;11.510;2022-10-16T02:32:58;13.00;99.90
6118;DHT22;3089;48.202;11.510;2022-10-16T02:35:28;13.00;99.90
6118;DHT22;3089;48.202;11.510;2022-10-16T02:37:57;13.00;99.90
6118;DHT22;3089;48.202;11.510;2022-10-16T02:40:26;13.00;99.90
6118;DHT22;3089;48.202;11.510;2022-10-16T02:42:56;13.00;99.90
6118;DHT22;3089;48.202;11.510;2022-10-16T02:45:24;13.00;99.90
6118;DHT22;3089;48.202;11.510;2022-10-16T02:47:52;12.90;99.90
6118;DHT22;3089;48.202;11.510;2022-10-16T02:50:20;12.90;99.90
6118;DHT22;3089;48.202;11.510;2022-10-16T02:52:48;12.90;99.90
6118;DHT22;3089;48.202;11.510;2022-10-16T02:55:16;12.90;99.90
6118;DHT22;3089;48.202;11.510;2022-10-16T02:57:44;12.90;99.90
6118;DHT22;3089;48.202;11.510;2022-10-16T03:00:16;12.80;99.90
6118;DHT22;3089;48.202;11.510;2022-10-16T03:02:44;12.80;99.90
6118;DHT22;3089;48.202;11.510;2022-10-16T03:05:13;12.80;99.90
6118;DHT22;3089;48.202;11.510;2022-10-16T03:07:41;12.80;99.90
6118;DHT22;3089;48.202;11.510;2022-10-16T03:10:09;12.80;99.90
6118;DHT22;3089;48.202;11.510;2022-10-16T03:12:37;12.80;99.90
6118;DHT22;3089;48.202;11.510;2022-10-16T03:15:05;12.80;99.90
6118;DHT22;3089;48.202;11.510;2022-10-16T03:17:35;12.70;99.90
6118;DHT22;3089;48.202;11.510;2022-10-16T03:20:03;12.70;99.90
6118;DHT22;3089;48.202;11.510;2022-10-16T03:22:31;12.70;99.90
6118;DHT22;3089;48.202;11.510;2022-10-16T03:24:59;12.70;99.90
6118;DHT22;3089;48.202;11.510;2022-10-16T03:27:26;12.70;99.90
6118;DHT22;3089;48.202;11.510;2022-10-16T03:29:55;12.70;99.90
6118;DHT22;3089;48.202;11.510;2022-10-16T03:32:22;12.70;99.90
6118;DHT22;3089;48.202;11.510;2022-10-16T03:34:53;12.70;99.90
6118;DHT22;3089;48.202;11.510;2022-10-16T03:37:23;12.70;99.90
6118;DHT22;3089;48.202;11.510;2022-10-16T03:39:51;12.60;99.90
6118;DHT22;3089;48.202;11.510;2022-10-16T03:42:19;12.70;99.90
6118;DHT22;3089;48.202;11.510;2022-10-16T03:44:47;12.70;99.90
6118;DHT22;3089;48.202;11.510;2022-10-16T03:47:15;12.70;99.90
6118;DHT22;3089;48.202;11.510;2022-10-16T03:49:47;12.60;99.90
6118;DHT22;3089;48.202;11.510;2022-10-16T03:52:16;12.60;99.90
6118;DHT22;3089;48.202;11.510;2022-10-16T03:54:49;12.60;99.90
6118;DHT22;3089;48.202;11.510;2022-10-16T03:57:17;12.60;99.90
6118;DHT22;3089;48.202;11.510;2022-10-16T03:59:45;12.50;99.90
6118;DHT22;3089;48.202;11.510;2022-10-16T04:02:13;12.50;99.90
6118;DHT22;3089;48.202;11.510;2022-10-16T04:04:40;12.60;99.90
6118;DHT22;3089;48.202;11.510;2022-10-16T04:07:08;12.60;99.90
6118;DHT22;3089;48.202;11.510;2022-10-16T04:09:37;12.70;99.90
6118;DHT22;3089;48.202;11.510;2022-10-16T04:12:05;12.70;99.90
6118;DHT22;3089;48.202;11.510;2022-10-16T04:14:33;12.70;99.90
6118;DHT22;3089;48.202;11.510;2022-10-16T04:17:01;12.70;99.90
6118;DHT22;3089;48.202;11.510;2022-10-16T04:19:29;12.70;99.90
6118;DHT22;3089;48.202;11.510;2022-10-16T04:21:57;12.60;99.90
6118;DHT22;3089;48.202;11.510;2022-10-16T04:24:24;12.70;99.90
6118;DHT22;3089;48.202;11.510;2022-10-16T04:26:54;12.70;99.90
6118;DHT22;3089;48.202;11.510;2022-10-16T04:29:21;12.60;99.90
6118;DHT22;3089;48.202;11.510;2022-10-16T04:31:49;12.70;99.90
6118;DHT22;3089;48.202;11.510;2022-10-16T04:34:17;12.70;99.90
6118;DHT22;3089;48.202;11.510;2022-10-16T04:36:47;12.60;99.90
6118;DHT22;3089;48.202;11.510;2022-10-16T04:39:15;12.70;99.90
6118;DHT22;3089;48.202;11.510;2022-10-16T04:41:43;12.60;99.90
6118;DHT22;3089;48.202;11.510;2022-10-16T04:44:12;12.60;99.90
6118;DHT22;3089;48.202;11.510;2022-10-16T04:46:40;12.60;99.90
6118;DHT22;3089;48.202;11.510;2022-10-16T04:49:08;12.60;99.90
6118;DHT22;3089;48.202;11.510;2022-10-16T04:51:36;12.60;99.90
6118;DHT22;3089;48.202;11.510;2022-10-16T04:54:04;12.60;99.90
6118;DHT22;3089;48.202;11.510;2022-10-16T04:56:31;12.60;99.90
6118;DHT22;3089;48.202;11.510;2022-10-16T04:58:59;12.50;99.90
6118;DHT22;3089;48.202;11.510;2022-10-16T05:01:28;12.50;99.90
6118;DHT22;3089;48.202;11.510;2022-10-16T05:03:56;12.40;99.90
6118;DHT22;3089;48.202;11.510;2022-10-16T05:06:24;12.50;99.90
6118;DHT22;3089;48.202;11.510;2022-10-16T05:08:52;12.60;99.90
6118;DHT22;3089;48.202;11.510;2022-10-16T05:11:19;12.60;99.90
6118;DHT22;3089;48.202;11.510;2022-10-16T05:13:47;12.60;99.90
6118;DHT22;3089;48.202;11.510;2022-10-16T05:16:20;12.60;99.90
6118;DHT22;3089;48.202;11.510;2022-10-16T05:18:51;12.60;99.90
6118;DHT22;3089;48.202;11.510;2022-10-16T05:21:35;12.60;99.90
6118;DHT22;3089;48.202;11.510;2022-10-16T05:24:03;12.50;99.90
6118;DHT22;3089;48.202;11.510;2022-10-16T05:26:31;12.50;99.90
6118;DHT22;3089;48.202;11.510;2022-10-16T05:28:59;12.60;99.90
6118;DHT22;3089;48.202;11.510;2022-10-16T05:31:27;12.60;99.90
6118;DHT22;3089;48.202;11.510;2022-10-16T05:33:59;12.60;99.90
6118;DHT22;3089;48.202;11.510;2022-10-16T05:36:27;12.60;99.90
6118;DHT22;3089;48.202;11.510;2022-10-16T05:38:57;12.50;99.90
6118;DHT22;3089;48.202;11.510;2022-10-16T05:41:25;12.40;99.90
6118;DHT22;3089;48.202;11.510;2022-10-16T05:43:53;12.50;99.90
6118;DHT22;3089;48.202;11.510;2022-10-16T05:46:21;12.50;99.90
6118;DHT22;3089;48.202;11.510;2022-10-16T05:48:51;12.50;99.90
6118;DHT22;3089;48.202;11.510;2022-10-16T05:51:20;12.50;99.90
6118;DHT22;3089;48.202;11.510;2022-10-16T05:53:48;12.50;99.90
6118;DHT22;3089;48.202;11.510;2022-10-16T05:56:16;12.60;99.90
6118;DHT22;3089;48.202;11.510;2022-10-16T05:58:44;12.60;99.90
6118;DHT22;3089;48.202;11.510;2022-10-16T06:01:13;12.60;99.90
6118;DHT22;3089;48.202;11.510;2022-10-16T06:03:41;12.50;99.90
6118;DHT22;3089;48.202;11.510;2022-10-16T06:06:10;12.50;99.90
6118;DHT22;3089;48.202;11.510;2022-10-16T06:08:40;12.40;99.90
6118;DHT22;3089;48.202;11.510;2022-10-16T06:11:10;12.30;99.90
6118;DHT22;3089;48.202;11.510;2022-10-16T06:13:38;12.50;99.90
6118;DHT22;3089;48.202;11.510;2022-10-16T06:16:09;12.40;99.90
6118;DHT22;3089;48.202;11.510;2022-10-16T06:18:37;12.50;99.90
6118;DHT22;3089;48.202;11.510;2022-10-16T06:21:08;12.50;99.90
6118;DHT22;3089;48.202;11.510;2022-10-16T06:23:36;12.50;99.90
6118;DHT22;3089;48.202;11.510;2022-10-16T06:26:06;12.50;99.90
6118;DHT22;3089;48.202;11.510;2022-10-16T06:28:34;12.50;99.90
6118;DHT22;3089;48.202;11.510;2022-10-16T06:31:04;12.50;99.90
6118;DHT22;3089;48.202;11.510;2022-10-16T06:33:34;12.50;99.90
6118;DHT22;3089;48.202;11.510;2022-10-16T06:36:03;12.50;99.90
6118;DHT22;3089;48.202;11.510;2022-10-16T06:38:31;12.50;99.90
6118;DHT22;3089;48.202;11.510;2022-10-16T06:40:59;12.40;99.90
6118;DHT22;3089;48.202;11.510;2022-10-16T06:43:30;12.40;99.90
6118;DHT22;3089;48.202;11.510;2022-10-16T06:45:59;12.40;99.90
6118;DHT22;3089;48.202;11.510;2022-10-16T06:48:28;12.40;99.90
6118;DHT22;3089;48.202;11.510;2022-10-16T06:50:57;12.50;99.90
6118;DHT22;3089;48.202;11.510;2022-10-16T06:53:29;12.40;99.90
6118;DHT22;3089;48.202;11.510;2022-10-16T06:56:11;12.40;99.90
6118;DHT22;3089;48.202;11.510;2022-10-16T06:58:41;12.40;99.90
6118;DHT22;3089;48.202;11.510;2022-10-16T07:01:10;12.50;99.90
6118;DHT22;3089;48.202;11.510;2022-10-16T07:03:39;12.40;99.90
6118;DHT22;3089;48.202;11.510;2022-10-16T07:06:09;12.50;99.90
6118;DHT22;3089;48.202;11.510;2022-10-16T07:08:38;12.50;99.90
6118;DHT22;3089;48.202;11.510;2022-10-16T07:11:08;12.50;99.90
6118;DHT22;3089;48.202;11.510;2022-10-16T07:13:38;12.60;99.90
6118;DHT22;3089;48.202;11.510;2022-10-16T07:16:09;12.70;99.90
6118;DHT22;3089;48.202;11.510;2022-10-16T07:18:37;12.90;99.90
6118;DHT22;3089;48.202;11.510;2022-10-16T07:21:08;12.70;99.90
6118;DHT22;3089;48.202;11.510;2022-10-16T07:23:38;12.60;99.90
6118;DHT22;3089;48.202;11.510;2022-10-16T07:26:07;12.60;99.90
6118;DHT22;3089;48.202;11.510;2022-10-16T07:28:36;12.90;99.90
6118;DHT22;3089;48.202;11.510;2022-10-16T07:31:05;12.80;99.90
6118;DHT22;3089;48.202;11.510;2022-10-16T07:33:35;12.70;99.90
6118;DHT22;3089;48.202;11.510;2022-10-16T07:36:04;13.30;99.90
6118;DHT22;3089;48.202;11.510;2022-10-16T07:38:32;14.20;99.90
6118;DHT22;3089;48.202;11.510;2022-10-16T07:41:01;14.00;99.90
6118;DHT22;3089;48.202;11.510;2022-10-16T07:43:30;13.60;99.90
6118;DHT22;3089;48.202;11.510;2022-10-16T07:45:58;13.20;99.90
6118;DHT22;3089;48.202;11.510;2022-10-16T07:48:33;13.10;99.90
6118;DHT22;3089;48.202;11.510;2022-10-16T07:51:04;13.10;99.90
6118;DHT22;3089;48.202;11.510;2022-10-16T07:53:33;13.10;99.90
6118;DHT22;3089;48.202;11.510;2022-10-16T07:56:02;13.20;99.90
6118;DHT22;3089;48.202;11.510;2022-10-16T07:58:31;13.40;99.90
6118;DHT22;3089;48.202;11.510;2022-10-16T08:01:02;13.50;99.90
6118;DHT22;3089;48.202;11.510;2022-10-16T08:03:30;13.70;99.90
6118;DHT22;3089;48.202;11.510;2022-10-16T08:05:58;14.10;99.90
6118;DHT22;3089;48.202;11.510;2022-10-16T08:08:28;14.20;99.90
6118;DHT22;3089;48.202;11.510;2022-10-16T08:10:56;14.10;99.90
6118;DHT22;3089;48.202;11.510;2022-10-16T08:13:24;14.50;99.90
6118;DHT22;3089;48.202;11.510;2022-10-16T08:15:54;14.80;99.90
6118;DHT22;3089;48.202;11.510;2022-10-16T08:18:22;15.00;99.90
6118;DHT22;3089;48.202;11.510;2022-10-16T08:20:55;14.80;99.90
6118;DHT22;3089;48.202;11.510;2022-10-16T08:23:23;14.80;99.90
6118;DHT22;3089;48.202;11.510;2022-10-16T08:25:54;14.70;99.90
6118;DHT22;3089;48.202;11.510;2022-10-16T08:28:22;14.70;99.90
6118;DHT22;3089;48.202;11.510;2022-10-16T08:30:50;14.90;99.90
6118;DHT22;3089;48.202;11.510;2022-10-16T08:33:18;15.60;99.90
6118;DHT22;3089;48.202;11.510;2022-10-16T08:35:51;15.70;99.90
6118;DHT22;3089;48.202;11.510;2022-10-16T08:38:20;15.50;99.90
6118;DHT22;3089;48.202;11.510;2022-10-16T08:40:48;15.40;99.90
6118;DHT22;3089;48.202;11.510;2022-10-16T08:43:32;15.50;99.90
6118;DHT22;3089;48.202;11.510;2022-10-16T08:46:19;15.60;99.90
6118;DHT22;3089;48.202;11.510;2022-10-16T08:48:50;15.80;99.90
6118;DHT22;3089;48.202;11.510;2022-10-16T08:51:21;15.90;99.90
6118;DHT22;3089;48.202;11.510;2022-10-16T08:53:53;16.90;99.90
6118;DHT22;3089;48.202;11.510;2022-10-16T08:56:22;16.60;99.90
6118;DHT22;3089;48.202;11.510;2022-10-16T08:58:51;16.70;99.90
6118;DHT22;3089;48.202;11.510;2022-10-16T09:01:36;16.50;99.90
6118;DHT22;3089;48.202;11.510;2022-10-16T09:04:37;16.30;99.90
6118;DHT22;3089;48.202;11.510;2022-10-16T09:07:43;16.90;99.90
6118;DHT22;3089;48.202;11.510;2022-10-16T09:10:28;16.70;99.90
6118;DHT22;3089;48.202;11.510;2022-10-16T09:13:03;16.60;99.90
6118;DHT22;3089;48.202;11.510;2022-10-16T09:15:41;17.00;99.90
6118;DHT22;3089;48.202;11.510;2022-10-16T09:18:18;18.20;99.90
6118;DHT22;3089;48.202;11.510;2022-10-16T09:20:51;18.00;99.90
6118;DHT22;3089;48.202;11.510;2022-10-16T09:23:25;18.10;99.90
6118;DHT22;3089;48.202;11.510;2022-10-16T09:25:55;18.10;99.90
6118;DHT22;3089;48.202;11.510;2022-10-16T09:28:24;19.90;99.90
6118;DHT22;3089;48.202;11.510;2022-10-16T09:31:05;19.80;99.90
6118;DHT22;3089;48.202;11.510;2022-10-16T09:33:35;18.80;99.90
6118;DHT22;3089;48.202;11.510;2022-10-16T09:36:08;18.50;99.90
6118;DHT22;3089;48.202;11.510;2022-10-16T09:38:40;19.60;99.90
6118;DHT22;3089;48.202;11.510;2022-10-16T09:41:19;20.60;99.90
6118;DHT22;3089;48.202;11.510;2022-10-16T09:43:49;21.50;99.90
6118;DHT22;3089;48.202;11.510;2022-10-16T09:46:28;22.40;99.90
6118;DHT22;3089;48.202;11.510;2022-10-16T09:48:58;22.20;99.90
6118;DHT22;3089;48.202;11.510;2022-10-16T09:51:32;21.40;99.90
6118;DHT22;3089;48.202;11.510;2022-10-16T09:54:14;22.00;99.90
6118;DHT22;3089;48.202;11.510;2022-10-16T09:56:46;21.90;99.90
6118;DHT22;3089;48.202;11.510;2022-10-16T09:59:21;21.40;99.90
6118;DHT22;3089;48.202;11.510;2022-10-16T10:01:53;21.40;99.90
6118;DHT22;3089;48.202;11.510;2022-10-16T10:04:24;21.50;99.90
6118;DHT22;3089;48.202;11.510;2022-10-16T10:06:53;21.30;99.90
6118;DHT22;3089;48.202;11.510;2022-10-16T10:09:24;21.10;99.90
6118;DHT22;3089;48.202;11.510;2022-10-16T10:11:56;20.30;99.90
6118;DHT22;3089;48.202;11.510;2022-10-16T10:14:27;19.50;99.90
6118;DHT22;3089;48.202;11.510;2022-10-16T10:17:16;19.80;99.90
6118;DHT22;3089;48.202;11.510;2022-10-16T10:19:53;20.50;99.90
6118;DHT22;3089;48.202;11.510;2022-10-16T10:22:30;20.80;99.90
6118;DHT22;3089;48.202;11.510;2022-10-16T10:25:16;20.20;99.90
6118;DHT22;3089;48.202;11.510;2022-10-16T10:27:56;20.00;99.90
6118;DHT22;3089;48.202;11.510;2022-10-16T10:30:35;20.30;99.90
6118;DHT22;3089;48.202;11.510;2022-10-16T10:33:19;20.40;99.90
6118;DHT22;3089;48.202;11.510;2022-10-16T10:35:59;20.10;99.90
6118;DHT22;3089;48.202;11.510;2022-10-16T10:38:39;20.20;99.90
6118;DHT22;3089;48.202;11.510;2022-10-16T10:41:28;20.70;99.90
6118;DHT22;3089;48.202;11.510;2022-10-16T10:44:06;20.50;99.90
6118;DHT22;3089;48.202;11.510;2022-10-16T10:46:41;20.50;99.90
6118;DHT22;3089;48.202;11.510;2022-10-16T10:49:24;20.80;99.90
6118;DHT22;3089;48.202;11.510;2022-10-16T10:52:07;20.80;99.90
6118;DHT22;3089;48.202;11.510;2022-10-16T10:54:45;20.80;99.90
6118;DHT22;3089;48.202;11.510;2022-10-16T10:57:22;20.60;99.90
6118;DHT22;3089;48.202;11.510;2022-10-16T11:00:09;20.60;99.90
6118;DHT22;3089;48.202;11.510;2022-10-16T11:02:48;20.80;99.90
6118;DHT22;3089;48.202;11.510;2022-10-16T11:08:17;20.60;99.90
6118;DHT22;3089;48.202;11.510;2022-10-16T11:10:50;20.80;99.90
6118;DHT22;3089;48.202;11.510;2022-10-16T11:13:30;20.90;99.90
6118;DHT22;3089;48.202;11.510;2022-10-16T11:16:00;20.80;99.90
6118;DHT22;3089;48.202;11.510;2022-10-16T11:18:37;20.80;99.90
6118;DHT22;3089;48.202;11.510;2022-10-16T11:21:12;20.90;99.90
6118;DHT22;3089;48.202;11.510;2022-10-16T11:23:44;20.90;99.90
6118;DHT22;3089;48.202;11.510;2022-10-16T11:26:19;20.90;99.90
6118;DHT22;3089;48.202;11.510;2022-10-16T11:28:49;20.90;99.90
6118;DHT22;3089;48.202;11.510;2022-10-16T11:31:22;21.00;99.90
6118;DHT22;3089;48.202;11.510;2022-10-16T11:33:57;21.00;99.90
6118;DHT22;3089;48.202;11.510;2022-10-16T11:36:34;20.80;99.90
6118;DHT22;3089;48.202;11.510;2022-10-16T11:39:11;21.00;99.90
6118;DHT22;3089;48.202;11.510;2022-10-16T11:41:48;20.90;99.90
6118;DHT22;3089;48.202;11.510;2022-10-16T11:44:27;21.10;99.90
6118;DHT22;3089;48.202;11.510;2022-10-16T11:47:08;21.10;99.90
6118;DHT22;3089;48.202;11.510;2022-10-16T11:50:02;21.20;99.90
6118;DHT22;3089;48.202;11.510;2022-10-16T11:52:36;21.00;99.90
6118;DHT22;3089;48.202;11.510;2022-10-16T11:55:14;21.10;99.90
6118;DHT22;3089;48.202;11.510;2022-10-16T11:57:45;21.10;99.90
6118;DHT22;3089;48.202;11.510;2022-10-16T12:00:21;21.20;99.90
6118;DHT22;3089;48.202;11.510;2022-10-16T12:02:59;21.20;99.90
6118;DHT22;3089;48.202;11.510;2022-10-16T12:05:39;21.20;99.90
6118;DHT22;3089;48.202;11.510;2022-10-16T12:08:15;21.40;99.90
6118;DHT22;3089;48.202;11.510;2022-10-16T12:10:44;21.20;99.90
6118;DHT22;3089;48.202;11.510;2022-10-16T12:13:30;21.40;99.90
6118;DHT22;3089;48.202;11.510;2022-10-16T12:16:06;21.70;99.90
6118;DHT22;3089;48.202;11.510;2022-10-16T12:18:34;21.60;99.90
6118;DHT22;3089;48.202;11.510;2022-10-16T12:21:03;21.40;99.90
6118;DHT22;3089;48.202;11.510;2022-10-16T12:23:37;21.30;99.90
6118;DHT22;3089;48.202;11.510;2022-10-16T12:26:06;21.30;99.90
6118;DHT22;3089;48.202;11.510;2022-10-16T12:28:34;21.20;99.90
6118;DHT22;3089;48.202;11.510;2022-10-16T12:31:05;21.50;99.90
6118;DHT22;3089;48.202;11.510;2022-10-16T12:33:36;21.20;99.90
6118;DHT22;3089;48.202;11.510;2022-10-16T12:36:08;21.40;99.90
6118;DHT22;3089;48.202;11.510;2022-10-16T12:38:47;21.80;99.90
6118;DHT22;3089;48.202;11.510;2022-10-16T12:41:25;22.00;99.90
6118;DHT22;3089;48.202;11.510;2022-10-16T12:43:53;21.30;99.90
6118;DHT22;3089;48.202;11.510;2022-10-16T12:46:26;21.20;99.90
6118;DHT22;3089;48.202;11.510;2022-10-16T12:49:14;21.60;99.90
6118;DHT22;3089;48.202;11.510;2022-10-16T12:51:46;21.60;99.90
6118;DHT22;3089;48.202;11.510;2022-10-16T12:54:17;21.40;99.90
6118;DHT22;3089;48.202;11.510;2022-10-16T12:56:53;21.50;99.90
6118;DHT22;3089;48.202;11.510;2022-10-16T12:59:31;21.20;99.90
6118;DHT22;3089;48.202;11.510;2022-10-16T13:02:28;21.50;99.90
6118;DHT22;3089;48.202;11.510;2022-10-16T13:05:23;21.70;99.90
6118;DHT22;3089;48.202;11.510;2022-10-16T13:08:03;21.80;99.90
6118;DHT22;3089;48.202;11.510;2022-10-16T13:10:40;21.60;99.90
6118;DHT22;3089;48.202;11.510;2022-10-16T13:13:30;21.60;99.90
6118;DHT22;3089;48.202;11.510;2022-10-16T13:16:14;21.70;99.90
6118;DHT22;3089;48.202;11.510;2022-10-16T13:18:49;21.60;99.90
6118;DHT22;3089;48.202;11.510;2022-10-16T13:21:31;21.80;99.90
6118;DHT22;3089;48.202;11.510;2022-10-16T13:24:11;21.60;99.90
6118;DHT22;3089;48.202;11.510;2022-10-16T13:26:48;21.70;99.90
6118;DHT22;3089;48.202;11.510;2022-10-16T13:29:18;21.70;99.90
6118;DHT22;3089;48.202;11.510;2022-10-16T13:31:47;21.60;99.90
6118;DHT22;3089;48.202;11.510;2022-10-16T13:34:17;21.70;99.90
6118;DHT22;3089;48.202;11.510;2022-10-16T13:36:48;21.30;99.90
6118;DHT22;3089;48.202;11.510;2022-10-16T13:39:21;21.50;99.90
6118;DHT22;3089;48.202;11.510;2022-10-16T13:42:03;21.70;99.90
6118;DHT22;3089;48.202;11.510;2022-10-16T13:44:39;21.80;99.90
6118;DHT22;3089;48.202;11.510;2022-10-16T13:47:15;21.70;99.90
6118;DHT22;3089;48.202;11.510;2022-10-16T13:49:44;21.50;99.90
6118;DHT22;3089;48.202;11.510;2022-10-16T13:52:17;21.60;99.90
6118;DHT22;3089;48.202;11.510;2022-10-16T13:54:46;21.70;99.90
6118;DHT22;3089;48.202;11.510;2022-10-16T13:57:16;21.80;99.90
6118;DHT22;3089;48.202;11.510;2022-10-16T13:59:59;21.70;99.90
6118;DHT22;3089;48.202;11.510;2022-10-16T14:02:30;21.60;99.90
6118;DHT22;3089;48.202;11.510;2022-10-16T14:05:02;21.50;99.90
6118;DHT22;3089;48.202;11.510;2022-10-16T14:07:32;21.70;99.90
6118;DHT22;3089;48.202;11.510;2022-10-16T14:10:04;21.60;99.90
6118;DHT22;3089;48.202;11.510;2022-10-16T14:12:34;21.60;99.90
6118;DHT22;3089;48.202;11.510;2022-10-16T14:15:03;21.60;99.90
6118;DHT22;3089;48.202;11.510;2022-10-16T14:17:34;21.50;99.90
6118;DHT22;3089;48.202;11.510;2022-10-16T14:20:04;21.50;99.90
6118;DHT22;3089;48.202;11.510;2022-10-16T14:22:34;21.60;99.90
6118;DHT22;3089;48.202;11.510;2022-10-16T14:25:20;21.60;99.90
6118;DHT22;3089;48.202;11.510;2022-10-16T14:27:59;21.50;99.90
6118;DHT22;3089;48.202;11.510;2022-10-16T14:30:29;21.50;99.90
6118;DHT22;3089;48.202;11.510;2022-10-16T14:32:58;21.50;99.90
6118;DHT22;3089;48.202;11.510;2022-10-16T14:35:29;21.40;99.90
6118;DHT22;3089;48.202;11.510;2022-10-16T14:37:59;21.40;99.90
6118;DHT22;3089;48.202;11.510;2022-10-16T14:40:29;21.20;99.90
6118;DHT22;3089;48.202;11.510;2022-10-16T14:43:00;21.10;99.90
6118;DHT22;3089;48.202;11.510;2022-10-16T14:45:30;21.20;99.90
6118;DHT22;3089;48.202;11.510;2022-10-16T14:48:01;21.20;99.90
6118;DHT22;3089;48.202;11.510;2022-10-16T14:50:29;21.00;99.90
6118;DHT22;3089;48.202;11.510;2022-10-16T14:52:58;20.90;99.90
6118;DHT22;3089;48.202;11.510;2022-10-16T14:55:26;20.70;99.90
6118;DHT22;3089;48.202;11.510;2022-10-16T14:57:53;20.60;99.90
6118;DHT22;3089;48.202;11.510;2022-10-16T15:00:28;20.60;99.90
6118;DHT22;3089;48.202;11.510;2022-10-16T15:02:55;20.60;99.90
6118;DHT22;3089;48.202;11.510;2022-10-16T15:05:25;20.40;99.90
6118;DHT22;3089;48.202;11.510;2022-10-16T15:07:54;20.20;99.90
6118;DHT22;3089;48.202;11.510;2022-10-16T15:10:24;20.20;99.90
6118;DHT22;3089;48.202;11.510;2022-10-16T15:12:52;20.00;99.90
6118;DHT22;3089;48.202;11.510;2022-10-16T15:15:35;20.00;99.90
6118;DHT22;3089;48.202;11.510;2022-10-16T15:18:04;20.20;99.90
6118;DHT22;3089;48.202;11.510;2022-10-16T15:20:33;20.00;99.90
6118;DHT22;3089;48.202;11.510;2022-10-16T15:23:02;19.90;99.90
6118;DHT22;3089;48.202;11.510;2022-10-16T15:25:34;19.80;99.90
6118;DHT22;3089;48.202;11.510;2022-10-16T15:28:03;19.70;99.90
6118;DHT22;3089;48.202;11.510;2022-10-16T15:30:32;19.80;99.90
6118;DHT22;3089;48.202;11.510;2022-10-16T15:33:02;19.90;99.90
6118;DHT22;3089;48.202;11.510;2022-10-16T15:35:30;19.80;99.90
6118;DHT22;3089;48.202;11.510;2022-10-16T15:37:58;19.80;99.90
6118;DHT22;3089;48.202;11.510;2022-10-16T15:40:26;19.70;99.90
6118;DHT22;3089;48.202;11.510;2022-10-16T15:42:54;19.60;99.90
6118;DHT22;3089;48.202;11.510;2022-10-16T15:45:22;19.70;99.90
6118;DHT22;3089;48.202;11.510;2022-10-16T15:47:50;19.60;99.90
6118;DHT22;3089;48.202;11.510;2022-10-16T15:50:19;19.40;99.90
6118;DHT22;3089;48.202;11.510;2022-10-16T15:52:47;19.10;99.90
6118;DHT22;3089;48.202;11.510;2022-10-16T15:55:15;19.00;99.90
6118;DHT22;3089;48.202;11.510;2022-10-16T15:57:44;19.10;99.90
6118;DHT22;3089;48.202;11.510;2022-10-16T16:00:13;19.10;99.90
6118;DHT22;3089;48.202;11.510;2022-10-16T16:02:42;18.90;99.90
6118;DHT22;3089;48.202;11.510;2022-10-16T16:05:11;18.80;99.90
6118;DHT22;3089;48.202;11.510;2022-10-16T16:07:40;18.80;99.90
6118;DHT22;3089;48.202;11.510;2022-10-16T16:10:10;18.70;99.90
6118;DHT22;3089;48.202;11.510;2022-10-16T16:12:38;18.50;99.90
6118;DHT22;3089;48.202;11.510;2022-10-16T16:15:07;18.50;99.90
6118;DHT22;3089;48.202;11.510;2022-10-16T16:17:36;18.40;99.90